createdAt,value
2022-12-24T00:02:54.284Z,75.82
2022-12-24T00:06:09.195Z,75.90
2022-12-24T00:09:17.600Z,76.09
2022-12-24T00:12:27.095Z,75.88
2022-12-24T00:15:36.573Z,75.83
2022-12-24T00:18:47.396Z,75.77
2022-12-24T00:21:55.608Z,75.81
2022-12-24T00:25:03.786Z,75.41
2022-12-24T00:28:13.089Z,76.21
2022-12-24T00:31:23.032Z,75.86
2022-12-24T00:34:31.505Z,76.86
2022-12-24T00:37:39.610Z,75.85
2022-12-24T00:40:48.024Z,75.22
2022-12-24T00:43:58.686Z,75.27
2022-12-24T00:47:12.150Z,75.76
2022-12-24T00:50:20.669Z,76.09
2022-12-24T00:53:28.824Z,75.53
2022-12-24T00:56:37.395Z,75.69
2022-12-24T00:59:45.603Z,75.38
2022-12-24T01:02:55.448Z,75.95
2022-12-24T01:06:05.419Z,75.42
2022-12-24T01:09:13.818Z,75.86
2022-12-24T01:12:22.015Z,76.55
2022-12-24T01:15:30.727Z,75.51
2022-12-24T01:18:40.535Z,75.47
2022-12-24T01:21:48.701Z,75.42
2022-12-24T01:24:56.896Z,75.92
2022-12-24T01:28:05.312Z,76.63
2022-12-24T01:31:17.465Z,76.88
2022-12-24T01:34:27.510Z,77.69
2022-12-24T01:37:35.855Z,76.95
2022-12-24T01:41:02.369Z,77.88
2022-12-24T01:44:33.463Z,77.58
2022-12-24T01:47:44.230Z,77.13
2022-12-24T01:51:03.977Z,77.54
2022-12-24T01:54:17.436Z,76.89
2022-12-24T01:57:31.852Z,77.01
2022-12-24T02:00:40.267Z,76.58
2022-12-24T02:03:48.900Z,77.30
2022-12-24T02:06:58.928Z,76.87
2022-12-24T02:10:11.499Z,76.45
2022-12-24T02:13:22.805Z,77.06
2022-12-24T02:16:43.170Z,76.47
2022-12-24T02:20:41.069Z,76.60
2022-12-24T02:24:23.435Z,75.96
2022-12-24T02:27:53.789Z,76.35
2022-12-24T02:31:10.685Z,76.83
2022-12-24T02:34:30.740Z,74.70
2022-12-24T02:37:44.902Z,75.42
2022-12-24T02:40:59.780Z,75.86
2022-12-24T02:44:08.520Z,75.18
2022-12-24T02:47:20.688Z,73.96
2022-12-24T02:50:30.110Z,73.13
2022-12-24T02:53:40.132Z,74.49
2022-12-24T02:57:09.832Z,73.86
2022-12-24T03:00:22.161Z,74.36
2022-12-24T03:03:47.620Z,73.62
2022-12-24T03:07:10.515Z,74.73
2022-12-24T03:10:32.158Z,73.92
2022-12-24T03:13:41.478Z,73.49
2022-12-24T03:16:51.026Z,74.53
2022-12-24T03:20:00.726Z,74.52
2022-12-24T03:23:09.905Z,74.75
2022-12-24T03:26:20.372Z,74.91
2022-12-24T03:29:28.583Z,75.09
2022-12-24T03:32:36.978Z,74.56
2022-12-24T03:35:46.636Z,75.11
2022-12-24T03:38:54.763Z,73.97
2022-12-24T03:42:02.876Z,74.21
2022-12-24T03:45:12.252Z,75.08
2022-12-24T03:48:20.365Z,74.68
2022-12-24T03:51:30.026Z,74.97
2022-12-24T03:54:38.330Z,75.02
2022-12-24T03:57:46.385Z,74.81
2022-12-24T04:00:54.736Z,74.47
2022-12-24T04:04:03.225Z,73.58
2022-12-24T04:07:12.720Z,73.58
2022-12-24T04:10:20.923Z,74.08
2022-12-24T04:13:29.072Z,73.38
2022-12-24T04:16:37.342Z,73.33
2022-12-24T04:19:45.687Z,74.18
2022-12-24T04:22:55.775Z,74.63
2022-12-24T04:26:06.973Z,74.56
2022-12-24T04:29:15.070Z,74.22
2022-12-24T04:32:23.246Z,74.34
2022-12-24T04:35:31.652Z,73.95
2022-12-24T04:38:41.327Z,73.95
2022-12-24T04:41:49.405Z,74.59
2022-12-24T04:44:57.590Z,74.86
2022-12-24T04:48:06.195Z,73.55
2022-12-24T04:51:15.687Z,73.89
2022-12-24T04:54:25.443Z,73.54
2022-12-24T04:57:35.671Z,73.86
2022-12-24T05:00:43.782Z,74.18
2022-12-24T05:03:53.600Z,73.33
2022-12-24T05:07:01.932Z,73.29
2022-12-24T05:10:12.727Z,72.74
2022-12-24T05:13:21.097Z,72.45
2022-12-24T05:16:29.556Z,71.94
2022-12-24T05:19:38.057Z,71.59
2022-12-24T05:23:03.944Z,72.17
2022-12-24T05:26:24.626Z,72.09
2022-12-24T05:29:32.723Z,71.45
2022-12-24T05:32:41.043Z,70.99
2022-12-24T05:35:49.266Z,71.69
2022-12-24T05:38:58.015Z,71.88
2022-12-24T05:42:07.842Z,72.16
2022-12-24T05:45:16.281Z,72.07
2022-12-24T05:48:24.523Z,71.83
2022-12-24T05:51:32.675Z,71.38
2022-12-24T05:54:40.840Z,72.13
2022-12-24T05:57:50.537Z,72.50
2022-12-24T06:00:59.178Z,72.97
2022-12-24T06:04:07.332Z,72.60
2022-12-24T06:07:15.715Z,72.21
2022-12-24T06:10:23.917Z,71.23
2022-12-24T06:13:34.748Z,70.47
2022-12-24T06:16:43.079Z,70.33
2022-12-24T06:27:23.082Z,68.64
2022-12-24T06:30:32.608Z,66.96
2022-12-24T06:33:41.266Z,66.50
2022-12-24T06:36:49.543Z,66.65
2022-12-24T06:39:57.742Z,65.53
2022-12-24T06:43:05.959Z,65.95
2022-12-24T06:46:16.940Z,65.96
2022-12-24T06:49:25.159Z,66.49
2022-12-24T06:52:33.277Z,66.16
2022-12-24T06:55:41.493Z,65.56
2022-12-24T06:58:50.348Z,65.54
2022-12-24T07:02:00.040Z,64.64
2022-12-24T07:05:10.405Z,65.44
2022-12-24T07:08:18.579Z,65.76
2022-12-24T07:11:27.801Z,65.57
2022-12-24T07:14:36.326Z,65.69
2022-12-24T07:17:46.183Z,66.06
2022-12-24T07:20:54.693Z,64.47
2022-12-24T07:24:03.100Z,64.48
2022-12-24T07:27:11.325Z,65.49
2022-12-24T07:30:20.058Z,64.71
2022-12-24T07:33:30.264Z,64.55
2022-12-24T07:36:38.395Z,65.37
2022-12-24T07:39:47.135Z,64.78
2022-12-24T07:42:55.583Z,64.16
2022-12-24T07:46:04.549Z,64.52
2022-12-24T07:49:14.359Z,63.24
2022-12-24T07:52:23.002Z,63.06
2022-12-24T07:55:31.559Z,63.69
2022-12-24T07:58:39.955Z,64.17
2022-12-24T08:01:48.496Z,62.99
2022-12-24T08:04:59.072Z,63.28
2022-12-24T08:08:07.663Z,62.87
2022-12-24T08:11:16.341Z,63.70
2022-12-24T08:14:25.189Z,63.04
2022-12-24T08:17:33.823Z,63.03
2022-12-24T08:20:43.677Z,62.24
2022-12-24T08:23:52.096Z,61.29
2022-12-24T08:27:00.718Z,61.72
2022-12-24T08:30:14.795Z,61.55
2022-12-24T08:33:26.309Z,60.62
2022-12-24T08:36:36.196Z,62.43
2022-12-24T08:39:44.980Z,61.54
2022-12-24T08:42:53.567Z,62.02
2022-12-24T08:46:05.668Z,62.12
2022-12-24T08:49:14.342Z,61.06
2022-12-24T08:52:24.281Z,61.31
2022-12-24T08:55:35.120Z,62.45
2022-12-24T08:58:43.366Z,60.84
2022-12-24T09:01:51.919Z,62.07
2022-12-24T09:05:00.766Z,61.65
2022-12-24T09:08:10.685Z,61.83
2022-12-24T09:11:20.549Z,61.53
2022-12-24T09:14:28.813Z,62.34
2022-12-24T09:17:40.204Z,60.79
2022-12-24T09:20:52.371Z,61.28
2022-12-24T09:24:06.696Z,61.66
2022-12-24T09:27:14.854Z,60.57
2022-12-24T09:30:23.466Z,60.37
2022-12-24T09:33:38.166Z,60.69
2022-12-24T09:36:46.818Z,59.55
2022-12-24T09:39:56.213Z,60.07
2022-12-24T09:43:15.577Z,60.22
2022-12-24T09:46:31.221Z,60.22
2022-12-24T09:49:46.310Z,59.40
2022-12-24T09:52:56.938Z,60.43
2022-12-24T09:56:14.254Z,59.88
2022-12-24T09:59:26.904Z,58.65
2022-12-24T10:02:35.369Z,59.65
2022-12-24T10:05:53.965Z,58.82
2022-12-24T10:09:15.113Z,59.12
2022-12-24T10:12:37.493Z,59.33
2022-12-24T10:15:58.328Z,59.54
2022-12-24T10:19:18.429Z,59.65
2022-12-24T10:22:37.285Z,58.50
2022-12-24T10:25:53.706Z,59.89
2022-12-24T10:29:13.637Z,59.58
2022-12-24T10:32:26.883Z,60.03
2022-12-24T10:35:44.002Z,60.03
2022-12-24T10:38:52.495Z,59.68
2022-12-24T10:42:03.179Z,60.25
2022-12-24T10:45:19.889Z,59.30
2022-12-24T10:48:37.450Z,58.35
2022-12-24T10:51:54.552Z,60.22
2022-12-24T10:55:12.386Z,60.33
2022-12-24T10:58:21.744Z,60.63
2022-12-24T11:01:48.883Z,59.77
2022-12-24T11:04:59.433Z,59.73
2022-12-24T11:08:20.287Z,61.34
2022-12-24T11:11:44.783Z,58.99
2022-12-24T11:15:03.532Z,58.94
2022-12-24T11:18:17.171Z,59.95
2022-12-24T11:21:29.006Z,60.94
2022-12-24T11:24:43.752Z,59.98
2022-12-24T11:27:55.600Z,61.89
2022-12-24T11:31:08.430Z,61.02
2022-12-24T11:34:29.326Z,60.57
2022-12-24T11:37:37.742Z,60.10
2022-12-24T11:40:49.861Z,59.69
2022-12-24T11:44:06.918Z,59.19
2022-12-24T11:47:15.755Z,59.36
2022-12-24T11:50:31.806Z,60.22
2022-12-24T11:53:50.633Z,59.95
2022-12-24T11:57:03.622Z,59.91
2022-12-24T12:00:13.507Z,59.75
2022-12-24T12:03:38.368Z,59.66
2022-12-24T12:06:51.676Z,60.65
2022-12-24T12:10:07.456Z,61.38
2022-12-24T12:13:20.282Z,61.13
2022-12-24T12:16:59.591Z,60.14
2022-12-24T12:20:20.672Z,61.15
2022-12-24T12:23:36.500Z,60.17
2022-12-24T12:26:47.723Z,61.76
2022-12-24T12:30:01.702Z,61.12
2022-12-24T12:33:24.593Z,61.41
2022-12-24T12:36:40.654Z,61.49
2022-12-24T12:39:50.225Z,61.78
2022-12-24T12:43:14.779Z,61.95
2022-12-24T12:46:35.312Z,61.47
2022-12-24T12:49:58.875Z,61.54
2022-12-24T12:53:33.201Z,62.52
2022-12-24T12:56:49.887Z,62.74
2022-12-24T13:00:05.666Z,62.31
2022-12-24T13:04:06.580Z,61.68
2022-12-24T13:07:53.644Z,61.83
2022-12-24T13:11:31.819Z,62.17
2022-12-24T13:15:26.643Z,61.57
2022-12-24T13:19:00.249Z,62.28
2022-12-24T13:22:18.313Z,62.18
2022-12-24T13:25:35.170Z,61.31
2022-12-24T13:28:44.272Z,62.60
2022-12-24T13:31:54.642Z,61.39
2022-12-24T13:35:26.316Z,61.62
2022-12-24T13:38:48.532Z,61.88
2022-12-24T13:41:56.867Z,63.32
2022-12-24T13:45:48.113Z,63.14
2022-12-24T13:48:56.486Z,63.83
2022-12-24T13:52:24.725Z,64.39
2022-12-24T13:55:36.260Z,64.05
2022-12-24T13:58:49.335Z,63.59
2022-12-24T14:01:58.578Z,63.77
2022-12-24T14:05:21.589Z,64.37
2022-12-24T14:08:37.707Z,63.75
2022-12-24T14:12:46.676Z,64.62
2022-12-24T14:16:05.823Z,65.65
2022-12-24T14:19:17.425Z,64.98
2022-12-24T14:22:32.012Z,65.82
2022-12-24T14:25:44.408Z,66.21
2022-12-24T14:28:59.318Z,66.77
2022-12-24T14:32:16.338Z,66.79
2022-12-24T14:35:30.169Z,67.22
2022-12-24T14:38:42.814Z,67.40
2022-12-24T14:42:09.879Z,67.23
2022-12-24T14:45:34.852Z,68.32
2022-12-24T14:48:53.521Z,68.70
2022-12-24T14:52:37.630Z,68.42
2022-12-24T14:55:47.277Z,69.83
2022-12-24T14:58:55.372Z,70.83
2022-12-24T15:02:40.963Z,70.68
2022-12-24T15:05:55.502Z,70.87
2022-12-24T15:09:04.366Z,70.98
2022-12-24T15:12:14.099Z,71.16
2022-12-24T15:15:23.237Z,72.17
2022-12-24T15:18:38.232Z,72.61
2022-12-24T15:21:46.525Z,72.13
2022-12-24T15:24:55.546Z,72.71
2022-12-24T15:28:03.987Z,72.98
2022-12-24T15:31:15.878Z,72.42
2022-12-24T15:34:31.394Z,73.06
2022-12-24T15:37:43.601Z,72.58
2022-12-24T15:40:52.169Z,73.06
2022-12-24T15:44:04.808Z,73.27
2022-12-24T15:47:22.352Z,72.82
2022-12-24T15:50:39.325Z,72.44
2022-12-24T15:53:49.145Z,73.45
2022-12-24T15:56:57.614Z,74.11
2022-12-24T16:00:24.142Z,73.92
2022-12-24T16:03:33.492Z,74.58
2022-12-24T16:06:58.094Z,73.20
2022-12-24T16:10:24.879Z,73.47
2022-12-24T16:13:37.261Z,74.04
2022-12-24T16:16:51.613Z,73.78
2022-12-24T16:20:08.071Z,74.53
2022-12-24T16:23:21.872Z,75.23
2022-12-24T16:26:30.275Z,75.03
2022-12-24T16:29:38.376Z,74.58
2022-12-24T16:32:48.923Z,75.06
2022-12-24T16:35:58.252Z,73.81
2022-12-24T16:39:26.667Z,74.47
2022-12-24T16:42:53.171Z,74.54
2022-12-24T16:46:04.150Z,74.78
2022-12-24T16:49:17.744Z,73.19
2022-12-24T16:52:29.066Z,75.30
2022-12-24T16:55:39.041Z,74.97
2022-12-24T16:58:47.370Z,75.51
2022-12-24T17:01:55.841Z,75.94
2022-12-24T17:05:04.003Z,75.14
2022-12-24T17:08:13.406Z,75.59
2022-12-24T17:11:25.616Z,75.22
2022-12-24T17:14:34.421Z,74.83
2022-12-24T17:17:42.636Z,74.81
2022-12-24T17:21:00.579Z,74.14
2022-12-24T17:24:09.995Z,74.94
2022-12-24T17:27:19.669Z,75.31
2022-12-24T17:30:27.749Z,76.24
2022-12-24T17:33:36.021Z,74.51
2022-12-24T17:36:44.244Z,75.64
2022-12-24T17:39:52.599Z,75.69
2022-12-24T17:43:03.222Z,76.00
2022-12-24T17:46:16.129Z,76.15
2022-12-24T17:49:24.597Z,75.25
2022-12-24T17:52:34.755Z,74.32
2022-12-24T17:55:44.339Z,74.73
2022-12-24T17:58:54.078Z,74.88
2022-12-24T18:02:02.385Z,75.63
2022-12-24T18:05:11.138Z,75.83
2022-12-24T18:08:20.704Z,75.06
2022-12-24T18:11:32.680Z,74.78
2022-12-24T18:14:42.463Z,73.37
2022-12-24T18:17:53.267Z,74.29
2022-12-24T18:21:03.322Z,73.82
2022-12-24T18:24:13.326Z,74.32
2022-12-24T18:27:21.688Z,74.35
2022-12-24T18:30:31.366Z,75.19
2022-12-24T18:33:40.910Z,75.01
2022-12-24T18:36:54.838Z,74.97
2022-12-24T18:40:04.778Z,75.07
2022-12-24T18:43:12.940Z,74.60
2022-12-24T18:46:25.624Z,74.57
2022-12-24T18:49:33.808Z,74.37
2022-12-24T18:52:42.164Z,74.99
2022-12-24T18:55:50.496Z,74.76
2022-12-24T18:59:01.498Z,75.03
2022-12-24T19:02:12.329Z,74.64
2022-12-24T19:05:20.619Z,75.62
2022-12-24T19:08:56.456Z,75.43
2022-12-24T19:11:57.855Z,75.08
2022-12-24T19:15:11.807Z,75.85
2022-12-24T19:18:21.946Z,75.44
2022-12-24T19:21:31.499Z,75.29
2022-12-24T19:24:42.845Z,75.21
2022-12-24T19:27:51.213Z,75.52
2022-12-24T19:31:05.828Z,75.93
2022-12-24T19:34:18.296Z,76.05
2022-12-24T19:37:26.481Z,74.82
2022-12-24T19:40:38.392Z,75.87
2022-12-24T19:43:49.865Z,75.76
2022-12-24T19:46:58.708Z,75.61
2022-12-24T19:50:10.261Z,74.85
2022-12-24T19:53:18.703Z,74.63
2022-12-24T19:56:33.334Z,74.15
2022-12-24T19:59:42.266Z,75.02
2022-12-24T20:02:51.588Z,73.56
2022-12-24T20:06:02.136Z,74.54
2022-12-24T20:09:12.922Z,74.31
2022-12-24T20:12:21.573Z,74.52
2022-12-24T20:15:30.172Z,75.61
2022-12-24T20:18:39.328Z,75.28
2022-12-24T20:21:49.368Z,75.04
2022-12-24T20:24:57.504Z,74.41
2022-12-24T20:28:06.637Z,74.58
2022-12-24T20:31:17.817Z,74.20
2022-12-24T20:34:25.967Z,74.30
2022-12-24T20:37:43.700Z,74.02
2022-12-24T20:40:58.881Z,75.16
2022-12-24T20:44:08.082Z,74.11
2022-12-24T20:47:17.165Z,73.91
2022-12-24T20:50:27.040Z,74.68
2022-12-24T20:53:38.976Z,74.15
2022-12-24T20:56:58.100Z,74.64
2022-12-24T21:00:09.610Z,74.60
2022-12-24T21:03:20.064Z,75.15
2022-12-24T21:06:28.694Z,74.39
2022-12-24T21:09:39.065Z,74.89
2022-12-24T21:12:49.398Z,75.42
2022-12-24T21:15:58.662Z,75.11
2022-12-24T21:19:10.719Z,74.69
2022-12-24T21:22:18.949Z,74.97
2022-12-24T21:25:28.674Z,75.25
2022-12-24T21:28:36.920Z,74.60
2022-12-24T21:31:45.486Z,75.42
2022-12-24T21:34:54.038Z,75.47
2022-12-24T21:38:02.531Z,75.06
2022-12-24T21:41:16.627Z,74.97
2022-12-24T21:44:25.152Z,74.73
2022-12-24T21:47:36.823Z,76.04
2022-12-24T21:50:56.838Z,75.24
2022-12-24T21:54:23.469Z,74.78
2022-12-24T21:57:52.445Z,75.78
2022-12-24T22:01:09.064Z,75.14
2022-12-24T22:04:17.710Z,75.84
2022-12-24T22:07:46.873Z,75.23
2022-12-24T22:11:12.856Z,75.02
2022-12-24T22:14:23.096Z,75.01
2022-12-24T22:17:31.553Z,75.52
2022-12-24T22:20:41.230Z,74.82
2022-12-24T22:23:49.497Z,75.68
2022-12-24T22:26:58.407Z,75.82
2022-12-24T22:30:12.457Z,75.96
2022-12-24T22:33:20.869Z,76.28
2022-12-24T22:36:29.276Z,76.53
2022-12-24T22:39:39.097Z,76.58
2022-12-24T22:42:47.320Z,77.85
2022-12-24T22:45:57.063Z,77.40
2022-12-24T22:49:05.427Z,78.04
2022-12-24T22:52:14.622Z,78.04
2022-12-24T22:55:23.133Z,78.24
2022-12-24T22:58:31.601Z,79.44
2022-12-24T23:01:45.292Z,79.31
2022-12-24T23:04:54.208Z,78.66
2022-12-24T23:08:03.099Z,79.26
2022-12-24T23:11:15.199Z,79.29
2022-12-24T23:14:41.983Z,79.61
2022-12-24T23:17:51.924Z,80.13
2022-12-24T23:21:05.491Z,79.52
2022-12-24T23:24:13.756Z,80.28
2022-12-24T23:27:24.107Z,80.18
2022-12-24T23:30:33.081Z,80.56
2022-12-24T23:33:43.307Z,80.43
2022-12-24T23:36:51.735Z,79.78
2022-12-24T23:40:00.195Z,80.65
2022-12-24T23:43:09.729Z,80.43
2022-12-24T23:46:21.193Z,80.49
2022-12-24T23:49:31.824Z,80.94
2022-12-24T23:52:40.518Z,81.38
2022-12-24T23:55:48.907Z,81.11
2022-12-24T23:58:57.022Z,81.16
